sensor_id;sensor_type;location;lat;lon;timestamp;temperature;humidity
39899;DHT22;25571;47.876;10.642;2022-08-19T00:01:12;18.30;99.90
39899;DHT22;25571;47.876;10.642;2022-08-19T00:03:37;18.20;99.90
39899;DHT22;25571;47.876;10.642;2022-08-19T00:06:03;18.30;99.90
39899;DHT22;25571;47.876;10.642;2022-08-19T00:08:28;18.20;99.90
39899;DHT22;25571;47.876;10.642;2022-08-19T00:10:54;18.30;99.90
39899;DHT22;25571;47.876;10.642;2022-08-19T00:13:19;18.30;99.90
39899;DHT22;25571;47.876;10.642;2022-08-19T00:15:45;18.30;99.90
39899;DHT22;25571;47.876;10.642;2022-08-19T00:18:10;18.30;99.90
39899;DHT22;25571;47.876;10.642;2022-08-19T00:20:36;18.20;99.90
39899;DHT22;25571;47.876;10.642;2022-08-19T00:23:03;18.30;99.90
39899;DHT22;25571;47.876;10.642;2022-08-19T00:25:29;18.30;99.90
39899;DHT22;25571;47.876;10.642;2022-08-19T00:27:54;18.20;99.90
39899;DHT22;25571;47.876;10.642;2022-08-19T00:30:19;18.30;99.90
39899;DHT22;25571;47.876;10.642;2022-08-19T00:32:45;18.10;99.90
39899;DHT22;25571;47.876;10.642;2022-08-19T00:35:10;18.10;99.90
39899;DHT22;25571;47.876;10.642;2022-08-19T00:37:36;18.10;99.90
39899;DHT22;25571;47.876;10.642;2022-08-19T00:40:03;18.00;99.90
39899;DHT22;25571;47.876;10.642;2022-08-19T00:42:29;18.00;99.90
39899;DHT22;25571;47.876;10.642;2022-08-19T00:44:55;18.00;99.90
39899;DHT22;25571;47.876;10.642;2022-08-19T00:47:20;18.00;99.90
39899;DHT22;25571;47.876;10.642;2022-08-19T00:52:20;17.90;99.90
39899;DHT22;25571;47.876;10.642;2022-08-19T00:54:47;18.10;99.90
39899;DHT22;25571;47.876;10.642;2022-08-19T00:57:15;18.10;99.90
39899;DHT22;25571;47.876;10.642;2022-08-19T00:59:42;18.10;99.90
39899;DHT22;25571;47.876;10.642;2022-08-19T01:02:07;18.20;99.90
39899;DHT22;25571;47.876;10.642;2022-08-19T01:04:33;18.10;99.90
39899;DHT22;25571;47.876;10.642;2022-08-19T01:06:59;18.00;99.90
39899;DHT22;25571;47.876;10.642;2022-08-19T01:09:24;18.10;99.90
39899;DHT22;25571;47.876;10.642;2022-08-19T01:11:50;18.10;99.90
39899;DHT22;25571;47.876;10.642;2022-08-19T01:14:16;18.10;99.90
39899;DHT22;25571;47.876;10.642;2022-08-19T01:16:42;18.10;99.90
39899;DHT22;25571;47.876;10.642;2022-08-19T01:19:10;18.10;99.90
39899;DHT22;25571;47.876;10.642;2022-08-19T01:21:40;18.00;99.90
39899;DHT22;25571;47.876;10.642;2022-08-19T01:24:07;18.10;99.90
39899;DHT22;25571;47.876;10.642;2022-08-19T01:26:37;18.00;99.90
39899;DHT22;25571;47.876;10.642;2022-08-19T01:29:03;18.00;99.90
39899;DHT22;25571;47.876;10.642;2022-08-19T01:31:28;17.90;99.90
39899;DHT22;25571;47.876;10.642;2022-08-19T01:33:57;17.90;99.90
39899;DHT22;25571;47.876;10.642;2022-08-19T01:36:24;18.00;99.90
39899;DHT22;25571;47.876;10.642;2022-08-19T01:38:51;17.90;99.90
39899;DHT22;25571;47.876;10.642;2022-08-19T01:41:17;17.90;99.90
39899;DHT22;25571;47.876;10.642;2022-08-19T01:43:43;17.90;99.90
39899;DHT22;25571;47.876;10.642;2022-08-19T01:46:09;18.00;99.90
39899;DHT22;25571;47.876;10.642;2022-08-19T01:48:35;18.00;99.90
39899;DHT22;25571;47.876;10.642;2022-08-19T01:51:01;18.00;99.90
39899;DHT22;25571;47.876;10.642;2022-08-19T01:53:27;18.00;99.90
39899;DHT22;25571;47.876;10.642;2022-08-19T01:55:53;18.00;99.90
39899;DHT22;25571;47.876;10.642;2022-08-19T01:58:19;18.00;99.90
39899;DHT22;25571;47.876;10.642;2022-08-19T02:00:46;18.00;99.90
39899;DHT22;25571;47.876;10.642;2022-08-19T02:03:11;18.00;99.90
39899;DHT22;25571;47.876;10.642;2022-08-19T02:05:37;18.00;99.90
39899;DHT22;25571;47.876;10.642;2022-08-19T02:08:03;17.90;99.90
39899;DHT22;25571;47.876;10.642;2022-08-19T02:10:29;18.00;99.90
39899;DHT22;25571;47.876;10.642;2022-08-19T02:12:54;18.00;99.90
39899;DHT22;25571;47.876;10.642;2022-08-19T02:15:20;18.10;99.90
39899;DHT22;25571;47.876;10.642;2022-08-19T02:17:46;18.00;99.90
39899;DHT22;25571;47.876;10.642;2022-08-19T02:20:12;18.00;99.90
39899;DHT22;25571;47.876;10.642;2022-08-19T02:22:38;18.10;99.90
39899;DHT22;25571;47.876;10.642;2022-08-19T02:25:05;18.20;99.90
39899;DHT22;25571;47.876;10.642;2022-08-19T02:27:31;18.00;99.90
39899;DHT22;25571;47.876;10.642;2022-08-19T02:29:57;18.00;99.90
39899;DHT22;25571;47.876;10.642;2022-08-19T02:32:23;18.00;99.90
39899;DHT22;25571;47.876;10.642;2022-08-19T02:34:49;18.00;99.90
39899;DHT22;25571;47.876;10.642;2022-08-19T02:37:14;17.90;99.90
39899;DHT22;25571;47.876;10.642;2022-08-19T02:39:58;17.90;99.90
39899;DHT22;25571;47.876;10.642;2022-08-19T02:42:24;18.00;99.90
39899;DHT22;25571;47.876;10.642;2022-08-19T02:44:50;18.00;99.90
39899;DHT22;25571;47.876;10.642;2022-08-19T02:47:17;18.00;99.90
39899;DHT22;25571;47.876;10.642;2022-08-19T02:49:44;18.00;99.90
39899;DHT22;25571;47.876;10.642;2022-08-19T02:52:09;18.10;99.90
39899;DHT22;25571;47.876;10.642;2022-08-19T02:54:36;18.00;99.90
39899;DHT22;25571;47.876;10.642;2022-08-19T02:57:02;18.10;99.90
39899;DHT22;25571;47.876;10.642;2022-08-19T02:59:29;18.10;99.90
39899;DHT22;25571;47.876;10.642;2022-08-19T03:01:55;18.00;99.90
39899;DHT22;25571;47.876;10.642;2022-08-19T03:04:20;18.10;99.90
39899;DHT22;25571;47.876;10.642;2022-08-19T03:06:46;18.10;99.90
39899;DHT22;25571;47.876;10.642;2022-08-19T03:09:12;18.10;99.90
39899;DHT22;25571;47.876;10.642;2022-08-19T03:11:38;18.00;99.90
39899;DHT22;25571;47.876;10.642;2022-08-19T03:14:04;18.00;99.90
39899;DHT22;25571;47.876;10.642;2022-08-19T03:16:32;17.90;99.90
39899;DHT22;25571;47.876;10.642;2022-08-19T03:18:58;18.00;99.90
39899;DHT22;25571;47.876;10.642;2022-08-19T03:21:27;17.90;99.90
39899;DHT22;25571;47.876;10.642;2022-08-19T03:23:54;17.80;99.90
39899;DHT22;25571;47.876;10.642;2022-08-19T03:26:19;17.70;99.90
39899;DHT22;25571;47.876;10.642;2022-08-19T03:28:45;17.60;99.90
39899;DHT22;25571;47.876;10.642;2022-08-19T03:31:16;17.70;99.90
39899;DHT22;25571;47.876;10.642;2022-08-19T03:33:42;17.70;99.90
39899;DHT22;25571;47.876;10.642;2022-08-19T03:36:11;17.60;99.90
39899;DHT22;25571;47.876;10.642;2022-08-19T03:38:39;17.70;99.90
39899;DHT22;25571;47.876;10.642;2022-08-19T03:41:07;17.70;99.90
39899;DHT22;25571;47.876;10.642;2022-08-19T03:43:34;17.70;99.90
39899;DHT22;25571;47.876;10.642;2022-08-19T03:46:00;17.70;99.90
39899;DHT22;25571;47.876;10.642;2022-08-19T03:48:26;17.60;99.90
39899;DHT22;25571;47.876;10.642;2022-08-19T03:50:51;17.60;99.90
39899;DHT22;25571;47.876;10.642;2022-08-19T03:53:17;17.60;99.90
39899;DHT22;25571;47.876;10.642;2022-08-19T03:55:42;17.60;99.90
39899;DHT22;25571;47.876;10.642;2022-08-19T03:58:08;17.70;99.90
39899;DHT22;25571;47.876;10.642;2022-08-19T04:00:33;17.60;99.90
39899;DHT22;25571;47.876;10.642;2022-08-19T04:02:59;17.70;99.90
39899;DHT22;25571;47.876;10.642;2022-08-19T04:05:26;17.70;99.90
39899;DHT22;25571;47.876;10.642;2022-08-19T04:07:53;17.60;99.90
39899;DHT22;25571;47.876;10.642;2022-08-19T04:10:20;17.80;99.90
39899;DHT22;25571;47.876;10.642;2022-08-19T04:12:45;17.70;99.90
39899;DHT22;25571;47.876;10.642;2022-08-19T04:15:11;17.60;99.90
39899;DHT22;25571;47.876;10.642;2022-08-19T04:17:37;17.70;99.90
39899;DHT22;25571;47.876;10.642;2022-08-19T04:20:02;17.70;99.90
39899;DHT22;25571;47.876;10.642;2022-08-19T04:22:28;17.60;99.90
39899;DHT22;25571;47.876;10.642;2022-08-19T04:24:55;17.60;99.90
39899;DHT22;25571;47.876;10.642;2022-08-19T04:27:20;17.50;99.90
39899;DHT22;25571;47.876;10.642;2022-08-19T04:29:46;17.50;99.90
39899;DHT22;25571;47.876;10.642;2022-08-19T04:32:13;17.50;99.90
39899;DHT22;25571;47.876;10.642;2022-08-19T04:34:40;17.60;99.90
39899;DHT22;25571;47.876;10.642;2022-08-19T04:37:08;17.60;99.90
39899;DHT22;25571;47.876;10.642;2022-08-19T04:39:36;17.60;99.90
39899;DHT22;25571;47.876;10.642;2022-08-19T04:42:21;17.60;99.90
39899;DHT22;25571;47.876;10.642;2022-08-19T04:45:12;17.70;99.90
39899;DHT22;25571;47.876;10.642;2022-08-19T04:47:39;17.70;99.90
39899;DHT22;25571;47.876;10.642;2022-08-19T04:50:05;17.70;99.90
39899;DHT22;25571;47.876;10.642;2022-08-19T04:52:31;17.80;99.90
39899;DHT22;25571;47.876;10.642;2022-08-19T04:54:57;17.70;99.90
39899;DHT22;25571;47.876;10.642;2022-08-19T04:57:23;17.60;99.90
39899;DHT22;25571;47.876;10.642;2022-08-19T04:59:49;17.70;99.90
39899;DHT22;25571;47.876;10.642;2022-08-19T05:02:14;17.70;99.90
39899;DHT22;25571;47.876;10.642;2022-08-19T05:04:40;17.70;99.90
39899;DHT22;25571;47.876;10.642;2022-08-19T05:07:06;17.60;99.90
39899;DHT22;25571;47.876;10.642;2022-08-19T05:09:32;17.90;99.90
39899;DHT22;25571;47.876;10.642;2022-08-19T05:11:57;17.80;99.90
39899;DHT22;25571;47.876;10.642;2022-08-19T05:14:23;17.90;99.90
39899;DHT22;25571;47.876;10.642;2022-08-19T05:16:48;17.80;99.90
39899;DHT22;25571;47.876;10.642;2022-08-19T05:19:14;17.80;99.90
39899;DHT22;25571;47.876;10.642;2022-08-19T05:21:58;17.90;99.90
39899;DHT22;25571;47.876;10.642;2022-08-19T05:24:43;18.00;99.90
39899;DHT22;25571;47.876;10.642;2022-08-19T05:27:08;17.90;99.90
39899;DHT22;25571;47.876;10.642;2022-08-19T05:29:34;17.90;99.90
39899;DHT22;25571;47.876;10.642;2022-08-19T05:31:59;17.90;99.90
39899;DHT22;25571;47.876;10.642;2022-08-19T05:34:25;18.00;99.90
39899;DHT22;25571;47.876;10.642;2022-08-19T05:36:58;18.00;99.90
39899;DHT22;25571;47.876;10.642;2022-08-19T05:39:25;18.00;99.90
39899;DHT22;25571;47.876;10.642;2022-08-19T05:41:55;18.10;99.90
39899;DHT22;25571;47.876;10.642;2022-08-19T05:44:23;18.10;99.90
39899;DHT22;25571;47.876;10.642;2022-08-19T05:46:48;18.10;99.90
39899;DHT22;25571;47.876;10.642;2022-08-19T05:49:15;18.10;99.90
39899;DHT22;25571;47.876;10.642;2022-08-19T05:51:41;18.10;99.90
39899;DHT22;25571;47.876;10.642;2022-08-19T05:54:07;18.10;99.90
39899;DHT22;25571;47.876;10.642;2022-08-19T05:56:34;18.20;99.90
39899;DHT22;25571;47.876;10.642;2022-08-19T05:59:04;18.30;99.90
39899;DHT22;25571;47.876;10.642;2022-08-19T06:01:36;18.30;99.90
39899;DHT22;25571;47.876;10.642;2022-08-19T06:04:02;18.40;99.90
39899;DHT22;25571;47.876;10.642;2022-08-19T06:06:28;18.40;99.90
39899;DHT22;25571;47.876;10.642;2022-08-19T06:08:53;18.50;99.90
39899;DHT22;25571;47.876;10.642;2022-08-19T06:11:32;18.40;99.90
39899;DHT22;25571;47.876;10.642;2022-08-19T06:13:59;18.50;99.90
39899;DHT22;25571;47.876;10.642;2022-08-19T06:16:25;18.40;99.90
39899;DHT22;25571;47.876;10.642;2022-08-19T06:18:52;18.40;99.90
39899;DHT22;25571;47.876;10.642;2022-08-19T06:21:21;18.20;99.90
39899;DHT22;25571;47.876;10.642;2022-08-19T06:23:47;18.30;99.90
39899;DHT22;25571;47.876;10.642;2022-08-19T06:26:14;18.30;99.90
39899;DHT22;25571;47.876;10.642;2022-08-19T06:28:39;18.30;99.90
39899;DHT22;25571;47.876;10.642;2022-08-19T06:31:20;18.40;99.90
39899;DHT22;25571;47.876;10.642;2022-08-19T06:33:46;18.30;99.90
39899;DHT22;25571;47.876;10.642;2022-08-19T06:38:43;18.30;99.90
39899;DHT22;25571;47.876;10.642;2022-08-19T06:41:09;18.30;99.90
39899;DHT22;25571;47.876;10.642;2022-08-19T06:43:35;18.30;99.90
39899;DHT22;25571;47.876;10.642;2022-08-19T06:46:01;18.30;99.90
39899;DHT22;25571;47.876;10.642;2022-08-19T06:48:29;18.20;99.90
39899;DHT22;25571;47.876;10.642;2022-08-19T06:50:54;18.20;99.90
39899;DHT22;25571;47.876;10.642;2022-08-19T06:53:20;18.20;99.90
39899;DHT22;25571;47.876;10.642;2022-08-19T06:55:45;18.20;99.90
39899;DHT22;25571;47.876;10.642;2022-08-19T06:58:11;18.20;99.90
39899;DHT22;25571;47.876;10.642;2022-08-19T07:00:36;18.20;99.90
39899;DHT22;25571;47.876;10.642;2022-08-19T07:03:02;18.20;99.90
39899;DHT22;25571;47.876;10.642;2022-08-19T07:05:28;18.20;99.90
39899;DHT22;25571;47.876;10.642;2022-08-19T07:07:53;18.30;99.90
39899;DHT22;25571;47.876;10.642;2022-08-19T07:10:19;18.20;99.90
39899;DHT22;25571;47.876;10.642;2022-08-19T07:12:44;18.30;99.90
39899;DHT22;25571;47.876;10.642;2022-08-19T07:15:10;18.40;99.90
39899;DHT22;25571;47.876;10.642;2022-08-19T07:17:36;18.30;99.90
39899;DHT22;25571;47.876;10.642;2022-08-19T07:20:04;18.50;99.90
39899;DHT22;25571;47.876;10.642;2022-08-19T07:22:30;18.50;99.90
39899;DHT22;25571;47.876;10.642;2022-08-19T07:24:56;18.40;99.90
39899;DHT22;25571;47.876;10.642;2022-08-19T07:27:21;18.50;99.90
39899;DHT22;25571;47.876;10.642;2022-08-19T07:29:47;18.50;99.90
39899;DHT22;25571;47.876;10.642;2022-08-19T07:32:12;18.40;99.90
39899;DHT22;25571;47.876;10.642;2022-08-19T07:34:38;18.50;99.90
39899;DHT22;25571;47.876;10.642;2022-08-19T07:37:05;18.60;99.90
39899;DHT22;25571;47.876;10.642;2022-08-19T07:39:31;18.60;99.90
39899;DHT22;25571;47.876;10.642;2022-08-19T07:41:58;18.60;99.90
39899;DHT22;25571;47.876;10.642;2022-08-19T07:44:24;18.60;99.90
39899;DHT22;25571;47.876;10.642;2022-08-19T07:46:52;18.60;99.90
39899;DHT22;25571;47.876;10.642;2022-08-19T07:49:18;18.60;99.90
39899;DHT22;25571;47.876;10.642;2022-08-19T07:51:48;18.60;99.90
39899;DHT22;25571;47.876;10.642;2022-08-19T07:54:14;18.50;99.90
39899;DHT22;25571;47.876;10.642;2022-08-19T07:56:40;18.50;99.90
39899;DHT22;25571;47.876;10.642;2022-08-19T07:59:06;18.60;99.90
39899;DHT22;25571;47.876;10.642;2022-08-19T08:01:33;18.60;99.90
39899;DHT22;25571;47.876;10.642;2022-08-19T08:03:58;18.60;99.90
39899;DHT22;25571;47.876;10.642;2022-08-19T08:06:42;18.60;99.90
39899;DHT22;25571;47.876;10.642;2022-08-19T08:09:36;18.60;99.90
39899;DHT22;25571;47.876;10.642;2022-08-19T08:12:04;18.70;99.90
39899;DHT22;25571;47.876;10.642;2022-08-19T08:14:35;18.70;99.90
39899;DHT22;25571;47.876;10.642;2022-08-19T08:17:02;18.60;99.90
39899;DHT22;25571;47.876;10.642;2022-08-19T08:19:28;18.70;99.90
39899;DHT22;25571;47.876;10.642;2022-08-19T08:21:55;18.70;99.90
39899;DHT22;25571;47.876;10.642;2022-08-19T08:24:21;18.80;99.90
39899;DHT22;25571;47.876;10.642;2022-08-19T08:26:46;18.90;99.90
39899;DHT22;25571;47.876;10.642;2022-08-19T08:29:12;18.80;99.90
39899;DHT22;25571;47.876;10.642;2022-08-19T08:31:39;18.80;99.90
39899;DHT22;25571;47.876;10.642;2022-08-19T08:34:05;18.90;99.90
39899;DHT22;25571;47.876;10.642;2022-08-19T08:36:30;18.90;99.90
39899;DHT22;25571;47.876;10.642;2022-08-19T08:38:58;18.90;99.90
39899;DHT22;25571;47.876;10.642;2022-08-19T08:41:32;18.90;99.90
39899;DHT22;25571;47.876;10.642;2022-08-19T08:43:58;18.90;99.90
39899;DHT22;25571;47.876;10.642;2022-08-19T08:46:26;18.80;99.90
39899;DHT22;25571;47.876;10.642;2022-08-19T08:48:54;18.80;99.90
39899;DHT22;25571;47.876;10.642;2022-08-19T08:51:23;18.90;99.90
39899;DHT22;25571;47.876;10.642;2022-08-19T08:53:50;18.80;99.90
39899;DHT22;25571;47.876;10.642;2022-08-19T08:56:16;18.90;99.90
39899;DHT22;25571;47.876;10.642;2022-08-19T09:01:10;18.90;99.90
39899;DHT22;25571;47.876;10.642;2022-08-19T09:03:36;18.90;99.90
39899;DHT22;25571;47.876;10.642;2022-08-19T09:06:03;18.70;99.90
39899;DHT22;25571;47.876;10.642;2022-08-19T09:12:00;18.70;99.90
39899;DHT22;25571;47.876;10.642;2022-08-19T09:16:34;18.50;99.90
39899;DHT22;25571;47.876;10.642;2022-08-19T09:19:02;18.50;99.90
39899;DHT22;25571;47.876;10.642;2022-08-19T09:21:29;18.40;99.90
39899;DHT22;25571;47.876;10.642;2022-08-19T09:23:54;18.50;99.90
39899;DHT22;25571;47.876;10.642;2022-08-19T09:26:21;18.50;99.90
39899;DHT22;25571;47.876;10.642;2022-08-19T09:28:48;18.40;99.90
39899;DHT22;25571;47.876;10.642;2022-08-19T09:31:25;18.40;99.90
39899;DHT22;25571;47.876;10.642;2022-08-19T09:33:51;18.50;99.90
39899;DHT22;25571;47.876;10.642;2022-08-19T09:36:19;18.50;99.90
39899;DHT22;25571;47.876;10.642;2022-08-19T09:38:45;18.50;99.90
39899;DHT22;25571;47.876;10.642;2022-08-19T09:41:12;18.60;99.90
39899;DHT22;25571;47.876;10.642;2022-08-19T09:43:39;18.60;99.90
39899;DHT22;25571;47.876;10.642;2022-08-19T09:46:04;18.60;99.90
39899;DHT22;25571;47.876;10.642;2022-08-19T09:48:34;18.70;99.90
39899;DHT22;25571;47.876;10.642;2022-08-19T09:51:06;18.60;99.90
39899;DHT22;25571;47.876;10.642;2022-08-19T09:53:33;18.70;99.90
39899;DHT22;25571;47.876;10.642;2022-08-19T09:55:59;18.60;99.90
39899;DHT22;25571;47.876;10.642;2022-08-19T09:58:24;18.70;99.90
39899;DHT22;25571;47.876;10.642;2022-08-19T10:00:59;18.80;99.90
39899;DHT22;25571;47.876;10.642;2022-08-19T10:03:25;18.70;99.90
39899;DHT22;25571;47.876;10.642;2022-08-19T10:05:51;18.70;99.90
39899;DHT22;25571;47.876;10.642;2022-08-19T10:08:17;18.70;99.90
39899;DHT22;25571;47.876;10.642;2022-08-19T10:10:43;18.70;99.90
39899;DHT22;25571;47.876;10.642;2022-08-19T10:13:09;18.70;99.90
39899;DHT22;25571;47.876;10.642;2022-08-19T10:15:35;18.70;99.90
39899;DHT22;25571;47.876;10.642;2022-08-19T10:18:00;18.70;99.90
39899;DHT22;25571;47.876;10.642;2022-08-19T10:20:26;18.60;99.90
39899;DHT22;25571;47.876;10.642;2022-08-19T10:22:52;18.50;99.90
39899;DHT22;25571;47.876;10.642;2022-08-19T10:25:17;18.50;99.90
39899;DHT22;25571;47.876;10.642;2022-08-19T10:27:43;18.50;99.90
39899;DHT22;25571;47.876;10.642;2022-08-19T10:30:08;18.50;99.90
39899;DHT22;25571;47.876;10.642;2022-08-19T10:32:34;18.40;99.90
39899;DHT22;25571;47.876;10.642;2022-08-19T10:35:00;18.40;99.90
39899;DHT22;25571;47.876;10.642;2022-08-19T10:37:26;18.40;99.90
39899;DHT22;25571;47.876;10.642;2022-08-19T10:39:51;18.40;99.90
39899;DHT22;25571;47.876;10.642;2022-08-19T10:42:17;18.40;99.90
39899;DHT22;25571;47.876;10.642;2022-08-19T10:44:44;18.40;99.90
39899;DHT22;25571;47.876;10.642;2022-08-19T10:47:10;18.40;99.90
39899;DHT22;25571;47.876;10.642;2022-08-19T10:49:35;18.30;99.90
39899;DHT22;25571;47.876;10.642;2022-08-19T10:52:21;18.40;99.90
39899;DHT22;25571;47.876;10.642;2022-08-19T10:54:59;18.30;99.90
39899;DHT22;25571;47.876;10.642;2022-08-19T10:57:43;18.50;99.90
39899;DHT22;25571;47.876;10.642;2022-08-19T11:00:09;18.50;99.90
39899;DHT22;25571;47.876;10.642;2022-08-19T11:02:35;18.50;99.90
39899;DHT22;25571;47.876;10.642;2022-08-19T11:05:00;18.50;99.90
39899;DHT22;25571;47.876;10.642;2022-08-19T11:07:26;18.40;99.90
39899;DHT22;25571;47.876;10.642;2022-08-19T11:09:51;18.50;99.90
39899;DHT22;25571;47.876;10.642;2022-08-19T11:12:17;18.50;99.90
39899;DHT22;25571;47.876;10.642;2022-08-19T11:14:44;18.40;99.90
39899;DHT22;25571;47.876;10.642;2022-08-19T11:17:09;18.50;99.90
39899;DHT22;25571;47.876;10.642;2022-08-19T11:19:38;18.60;99.90
39899;DHT22;25571;47.876;10.642;2022-08-19T11:22:06;18.60;99.90
39899;DHT22;25571;47.876;10.642;2022-08-19T11:24:33;18.60;99.90
39899;DHT22;25571;47.876;10.642;2022-08-19T11:27:01;18.60;99.90
39899;DHT22;25571;47.876;10.642;2022-08-19T11:29:27;18.70;99.90
39899;DHT22;25571;47.876;10.642;2022-08-19T11:31:53;18.60;99.90
39899;DHT22;25571;47.876;10.642;2022-08-19T11:34:21;18.70;99.90
39899;DHT22;25571;47.876;10.642;2022-08-19T11:36:47;18.70;99.90
39899;DHT22;25571;47.876;10.642;2022-08-19T11:39:14;18.60;99.90
39899;DHT22;25571;47.876;10.642;2022-08-19T11:41:40;18.60;99.90
39899;DHT22;25571;47.876;10.642;2022-08-19T11:44:05;18.50;99.90
39899;DHT22;25571;47.876;10.642;2022-08-19T11:46:33;18.60;99.90
39899;DHT22;25571;47.876;10.642;2022-08-19T11:48:59;18.60;99.90
39899;DHT22;25571;47.876;10.642;2022-08-19T11:51:26;18.60;99.90
39899;DHT22;25571;47.876;10.642;2022-08-19T11:53:52;18.70;99.90
39899;DHT22;25571;47.876;10.642;2022-08-19T11:56:19;18.50;99.90
39899;DHT22;25571;47.876;10.642;2022-08-19T11:58:45;18.30;99.90
39899;DHT22;25571;47.876;10.642;2022-08-19T12:01:11;18.40;99.90
39899;DHT22;25571;47.876;10.642;2022-08-19T12:03:38;18.40;99.90
39899;DHT22;25571;47.876;10.642;2022-08-19T12:06:08;18.40;99.90
39899;DHT22;25571;47.876;10.642;2022-08-19T12:08:33;18.40;99.90
39899;DHT22;25571;47.876;10.642;2022-08-19T12:11:01;18.40;99.90
39899;DHT22;25571;47.876;10.642;2022-08-19T12:13:28;18.40;99.90
39899;DHT22;25571;47.876;10.642;2022-08-19T12:15:53;18.40;99.90
39899;DHT22;25571;47.876;10.642;2022-08-19T12:18:19;18.30;99.90
39899;DHT22;25571;47.876;10.642;2022-08-19T12:20:45;18.20;99.90
39899;DHT22;25571;47.876;10.642;2022-08-19T12:23:11;18.40;99.90
39899;DHT22;25571;47.876;10.642;2022-08-19T12:25:37;18.30;99.90
39899;DHT22;25571;47.876;10.642;2022-08-19T12:28:03;18.40;99.90
39899;DHT22;25571;47.876;10.642;2022-08-19T12:30:28;18.50;99.90
39899;DHT22;25571;47.876;10.642;2022-08-19T12:32:54;18.40;99.90
39899;DHT22;25571;47.876;10.642;2022-08-19T12:35:19;18.50;99.90
39899;DHT22;25571;47.876;10.642;2022-08-19T12:37:46;18.50;99.90
39899;DHT22;25571;47.876;10.642;2022-08-19T12:40:11;18.50;99.90
39899;DHT22;25571;47.876;10.642;2022-08-19T12:42:38;18.40;99.90
39899;DHT22;25571;47.876;10.642;2022-08-19T12:45:08;18.40;99.90
39899;DHT22;25571;47.876;10.642;2022-08-19T12:47:34;18.40;99.90
39899;DHT22;25571;47.876;10.642;2022-08-19T12:49:59;18.40;99.90
39899;DHT22;25571;47.876;10.642;2022-08-19T12:52:25;18.40;99.90
39899;DHT22;25571;47.876;10.642;2022-08-19T12:54:53;18.50;99.90
39899;DHT22;25571;47.876;10.642;2022-08-19T12:57:19;18.50;99.90
39899;DHT22;25571;47.876;10.642;2022-08-19T12:59:45;18.70;99.90
39899;DHT22;25571;47.876;10.642;2022-08-19T13:02:10;18.70;99.90
39899;DHT22;25571;47.876;10.642;2022-08-19T13:04:36;18.70;99.90
39899;DHT22;25571;47.876;10.642;2022-08-19T13:07:05;18.70;99.90
39899;DHT22;25571;47.876;10.642;2022-08-19T13:09:31;18.80;99.90
39899;DHT22;25571;47.876;10.642;2022-08-19T13:11:57;18.80;99.90
39899;DHT22;25571;47.876;10.642;2022-08-19T13:14:22;18.80;99.90
39899;DHT22;25571;47.876;10.642;2022-08-19T13:16:48;18.80;99.90
39899;DHT22;25571;47.876;10.642;2022-08-19T13:19:13;18.90;99.90
39899;DHT22;25571;47.876;10.642;2022-08-19T13:21:39;19.00;99.90
39899;DHT22;25571;47.876;10.642;2022-08-19T13:24:05;19.20;99.90
39899;DHT22;25571;47.876;10.642;2022-08-19T13:26:30;19.20;99.90
39899;DHT22;25571;47.876;10.642;2022-08-19T13:28:56;19.20;99.90
39899;DHT22;25571;47.876;10.642;2022-08-19T13:31:40;19.30;99.90
39899;DHT22;25571;47.876;10.642;2022-08-19T13:34:26;19.30;99.90
39899;DHT22;25571;47.876;10.642;2022-08-19T13:36:52;19.30;99.90
39899;DHT22;25571;47.876;10.642;2022-08-19T13:39:18;19.20;99.90
39899;DHT22;25571;47.876;10.642;2022-08-19T13:41:45;19.30;99.90
39899;DHT22;25571;47.876;10.642;2022-08-19T13:44:13;19.40;99.90
39899;DHT22;25571;47.876;10.642;2022-08-19T13:46:40;19.50;99.90
39899;DHT22;25571;47.876;10.642;2022-08-19T13:49:05;19.50;99.90
39899;DHT22;25571;47.876;10.642;2022-08-19T13:51:31;19.50;99.90
39899;DHT22;25571;47.876;10.642;2022-08-19T13:53:56;19.50;99.90
39899;DHT22;25571;47.876;10.642;2022-08-19T13:56:22;19.40;99.90
39899;DHT22;25571;47.876;10.642;2022-08-19T13:58:47;19.50;99.90
39899;DHT22;25571;47.876;10.642;2022-08-19T14:01:18;19.60;99.90
39899;DHT22;25571;47.876;10.642;2022-08-19T14:03:44;19.70;99.90
39899;DHT22;25571;47.876;10.642;2022-08-19T14:06:09;19.80;99.90
39899;DHT22;25571;47.876;10.642;2022-08-19T14:08:35;19.80;99.90
39899;DHT22;25571;47.876;10.642;2022-08-19T14:11:04;19.80;99.90
39899;DHT22;25571;47.876;10.642;2022-08-19T14:13:30;19.70;99.90
39899;DHT22;25571;47.876;10.642;2022-08-19T14:15:57;19.70;99.90
39899;DHT22;25571;47.876;10.642;2022-08-19T14:18:23;19.80;99.90
39899;DHT22;25571;47.876;10.642;2022-08-19T14:20:50;19.70;99.90
39899;DHT22;25571;47.876;10.642;2022-08-19T14:23:16;19.70;99.90
39899;DHT22;25571;47.876;10.642;2022-08-19T14:25:41;19.70;99.90
39899;DHT22;25571;47.876;10.642;2022-08-19T14:28:07;19.70;99.90
39899;DHT22;25571;47.876;10.642;2022-08-19T14:30:34;19.60;99.90
39899;DHT22;25571;47.876;10.642;2022-08-19T14:33:00;19.60;99.90
39899;DHT22;25571;47.876;10.642;2022-08-19T14:35:27;19.60;99.90
39899;DHT22;25571;47.876;10.642;2022-08-19T14:37:53;19.70;99.90
39899;DHT22;25571;47.876;10.642;2022-08-19T14:40:23;19.80;99.90
39899;DHT22;25571;47.876;10.642;2022-08-19T14:42:55;19.70;99.90
39899;DHT22;25571;47.876;10.642;2022-08-19T14:45:25;19.60;99.90
39899;DHT22;25571;47.876;10.642;2022-08-19T14:47:50;19.60;99.90
39899;DHT22;25571;47.876;10.642;2022-08-19T14:50:16;19.50;99.90
39899;DHT22;25571;47.876;10.642;2022-08-19T14:52:42;19.50;99.90
39899;DHT22;25571;47.876;10.642;2022-08-19T14:55:08;19.50;99.90
39899;DHT22;25571;47.876;10.642;2022-08-19T14:57:34;19.60;99.90
39899;DHT22;25571;47.876;10.642;2022-08-19T14:59:59;19.50;99.90
39899;DHT22;25571;47.876;10.642;2022-08-19T15:02:25;19.50;99.90
39899;DHT22;25571;47.876;10.642;2022-08-19T15:04:50;19.40;99.90
39899;DHT22;25571;47.876;10.642;2022-08-19T15:07:16;19.40;99.90
39899;DHT22;25571;47.876;10.642;2022-08-19T15:09:41;19.50;99.90
39899;DHT22;25571;47.876;10.642;2022-08-19T15:12:07;19.50;99.90
39899;DHT22;25571;47.876;10.642;2022-08-19T15:14:35;19.60;99.90
39899;DHT22;25571;47.876;10.642;2022-08-19T15:17:01;19.60;99.90
39899;DHT22;25571;47.876;10.642;2022-08-19T15:19:28;19.50;99.90
39899;DHT22;25571;47.876;10.642;2022-08-19T15:21:54;19.60;99.90
39899;DHT22;25571;47.876;10.642;2022-08-19T15:24:20;19.60;99.90
39899;DHT22;25571;47.876;10.642;2022-08-19T15:26:45;19.60;99.90